Latest Weather Observations for Katanning RS

IDW60801

Issued at 4:33 pm WST Wednesday 10 August 2022 (issued every 10 minutes, with the page automatically refreshed every 10 minutes)

About weather observations | Map of weather stations | Latest weather observations for WA | Other Formats
Station Details ID: 010916 Name: KATANNING Lat: -33.69 Lon: 117.61 Height: 320.0 m
Data from the previous 72 hours. | See also: Recent months at Katanning RS
Date/Time
WST
Temp
°C
App
Temp
°C
Dew
Point
°C
Rel
Hum
%
Delta-T
°C
Wind Press
QNH
hPa
Press
MSL
hPa
Rain since
9am
mm
Dir  Spd
km/h
Gust
km/h
Spd
kts
Gust
kts
10/04:30pm 11.8 8.8 7.9 77 1.9 SW 13 19 7 10 1021.7 1021.9 0.4
10/04:00pm 12.7 8.4 8.0 73 2.3 SW 20 32 11 17 1021.3 1021.5 0.4
10/03:30pm 12.6 8.6 8.1 74 2.3 SW 19 30 10 16 1021.1 1021.3 0.4
10/03:00pm 11.9 8.4 8.9 82 1.5 SW 17 28 9 15 1021.0 1021.2 0.4
10/02:30pm 12.2 9.2 9.4 83 1.4 SW 15 20 8 11 1020.7 1020.9 0.2
10/02:00pm 12.9 9.1 7.6 70 2.6 SW 17 28 9 15 1020.3 1020.5 0.0
10/01:30pm 11.5 7.9 8.2 80 1.6 SW 17 24 9 13 1020.5 1020.7 0.0
10/01:00pm 13.4 8.8 6.7 64 3.3 SW 20 28 11 15 1020.5 1020.7 0.0
10/12:30pm 12.3 6.7 5.5 63 3.2 WSW 24 37 13 20 1020.9 1021.1 0.0
10/12:00pm 12.6 7.8 5.8 63 3.2 SW 20 28 11 15 1021.1 1021.3 0.0
10/11:30am 11.7 6.4 4.9 63 3.2 SW 22 33 12 18 1021.2 1021.4 0.0
10/11:00am 11.6 6.6 4.8 63 3.1 SW 20 28 11 15 1021.3 1021.5 0.0
10/10:30am 10.8 6.6 5.8 71 2.4 SW 17 26 9 14 1021.4 1021.6 0.0
10/10:00am 9.8 5.1 6.0 77 1.8 WSW 20 28 11 15 1021.2 1021.4 0.0
10/09:30am 8.6 3.6 4.6 76 1.8 SW 20 32 11 17 1021.1 1021.3 0.0
10/09:00am 7.6 3.1 4.0 78 1.6 WSW 17 24 9 13 1020.7 1020.9 0.4
10/08:30am 6.3 1.7 3.5 82 1.2 W 17 26 9 14 1020.3 1020.5 0.4
10/08:00am 5.1 0.3 2.6 84 1.0 W 17 22 9 12 1019.9 1020.0 0.4
10/07:30am 4.5 -0.4 2.0 84 1.0 W 17 22 9 12 1019.7 1019.8 0.4
10/07:00am 4.2 -0.7 2.1 86 0.8 W 17 22 9 12 1019.4 1019.5 0.4
10/06:30am 3.8 -1.1 1.7 86 0.8 W 17 24 9 13 1018.8 1019.0 0.4
10/06:00am 3.9 -1.4 1.8 86 0.8 W 19 24 10 13 1018.2 1018.4 0.4
10/05:30am 4.0 -0.9 1.9 86 0.8 W 17 24 9 13 1017.9 1018.1 0.4
10/05:00am 4.4 -0.9 2.1 85 0.9 W 19 26 10 14 1017.7 1017.9 0.4
10/04:30am 4.2 -1.1 2.1 86 0.9 W 19 26 10 14 1017.5 1017.6 0.4
10/04:00am 3.8 -1.1 1.7 86 0.8 W 17 22 9 12 1017.3 1017.4 0.4
10/03:30am 3.7 -1.6 1.7 87 0.8 W 19 24 10 13 1016.9 1017.0 0.2
10/03:00am 3.8 -0.8 1.7 86 0.8 W 15 20 8 11 1016.8 1016.9 0.2
10/02:30am 3.7 -1.2 1.7 87 0.8 W 17 22 9 12 1016.7 1016.8 0.2
10/02:00am 3.7 -1.2 1.7 87 0.8 W 17 24 9 13 1016.7 1016.8 0.2
10/01:30am 3.7 -1.2 1.7 87 0.8 W 17 20 9 11 1016.5 1016.6 0.2
10/01:00am 3.7 -0.9 1.6 86 0.8 W 15 20 8 11 1016.4 1016.5 0.2
10/12:30am 3.9 -1.0 1.9 87 0.8 W 17 24 9 13 1016.1 1016.2 0.2
10/12:00am 4.2 -1.1 2.1 86 0.9 W 19 24 10 13 1016.1 1016.2 0.2
 
Date/Time
WST
Temp
°C
App
Temp
°C
Dew
Point
°C
Rel
Hum
%
Delta-T
°C
Wind Press
QNH
hPa
Press
MSL
hPa
Rain since
9am
mm
Dir  Spd
km/h
Gust
km/h
Spd
kts
Gust
kts
09/11:30pm 4.1 -0.8 2.1 87 0.8 W 17 22 9 12 1016.1 1016.2 0.2
09/11:00pm 4.4 -0.1 2.3 86 0.9 W 15 20 8 11 1015.9 1016.0 0.2
09/10:30pm 4.5 -0.7 2.4 86 0.9 W 19 26 10 14 1015.9 1016.0 0.2
09/10:00pm 4.3 0.2 2.2 86 0.9 W 13 17 7 9 1015.8 1015.9 0.2
09/09:30pm 4.6 -0.2 2.5 86 0.9 W 17 26 9 14 1015.5 1015.7 0.2
09/09:00pm 4.8 0.4 2.7 86 0.9 W 15 22 8 12 1015.2 1015.4 0.2
09/08:30pm 4.7 1.0 2.6 86 0.9 W 11 17 6 9 1014.9 1015.0 0.2
09/08:00pm 4.9 0.8 2.4 84 1.0 W 13 17 7 9 1014.6 1014.7 0.2
09/07:30pm 5.1 0.3 2.5 83 1.1 W 17 24 9 13 1014.4 1014.5 0.2
09/07:00pm 5.2 1.2 2.7 84 1.0 W 13 17 7 9 1014.2 1014.3 0.2
09/06:30pm 5.5 1.1 2.8 83 1.1 WSW 15 19 8 10 1013.7 1013.8 0.2
09/06:00pm 5.6 1.2 2.8 82 1.2 SW 15 20 8 11 1013.4 1013.5 0.2
09/05:30pm 5.8 1.0 2.6 80 1.3 WSW 17 30 9 16 1012.9 1013.0 0.2
09/05:00pm 6.2 1.1 2.8 79 1.4 WSW 19 32 10 17 1012.2 1012.3 0.2
09/04:30pm 7.7 2.5 3.7 76 1.7 SW 20 28 11 15 1011.6 1011.7 0.2
09/04:00pm 8.3 2.7 3.4 71 2.1 SW 22 33 12 18 1011.2 1011.3 0.2
09/03:30pm 9.1 4.0 3.9 70 2.3 SW 20 33 11 18 1010.6 1010.7 0.0
09/03:00pm 9.0 2.8 4.2 72 2.2 SW 26 39 14 21 1010.3 1010.4 0.0
09/02:30pm 9.0 3.0 3.6 69 2.4 WSW 24 37 13 20 1009.6 1009.6 0.0
09/02:00pm 8.7 2.0 3.7 71 2.2 WSW 28 43 15 23 1009.3 1009.3 0.0
09/01:30pm 9.5 3.1 3.3 65 2.7 WSW 26 43 14 23 1008.8 1008.9 0.0
09/01:00pm 9.2 3.6 3.6 68 2.5 WSW 22 32 12 17 1008.8 1008.9 0.0
09/12:30pm 9.5 4.1 4.3 70 2.3 WSW 22 33 12 18 1008.8 1008.9 0.0
09/12:00pm 9.0 3.7 5.0 76 1.8 WSW 22 32 12 17 1008.8 1008.9 0.0
09/11:30am 7.9 2.0 4.1 77 1.7 WSW 24 32 13 17 1009.2 1009.2 0.0
09/11:00am 7.4 2.4 3.8 78 1.6 WSW 19 32 10 17 1009.0 1009.1 0.0
09/10:30am 8.1 1.8 3.9 75 1.9 WSW 26 33 14 18 1008.7 1008.8 0.0
09/10:00am 7.9 3.0 4.3 78 1.6 WSW 19 30 10 16 1008.4 1008.5 0.0
09/09:30am 7.0 2.1 4.0 81 1.3 WSW 19 26 10 14 1008.3 1008.4 0.0
09/09:00am 6.3 1.2 3.3 81 1.3 W 19 26 10 14 1008.2 1008.3 4.0
09/08:30am 5.8 -0.3 3.0 82 1.2 WSW 24 32 13 17 1008.0 1008.1 4.0
09/08:00am 5.5 0.8 3.0 84 1.1 W 17 24 9 13 1007.5 1007.6 4.0
09/07:30am 5.5 2.0 3.5 87 0.9 W 11 17 6 9 1007.1 1007.2 4.0
09/07:00am 4.7 1.4 2.4 85 0.9 WNW 9 13 5 7 1006.7 1006.7 4.0
09/06:30am 5.4 1.9 3.4 87 0.8 WNW 11 15 6 8 1006.6 1006.6 4.0
09/06:00am 5.3 2.1 3.2 86 0.9 NW 9 17 5 9 1006.5 1006.5 4.0
09/05:30am 5.4 1.9 3.3 86 0.9 WNW 11 17 6 9 1006.3 1006.3 4.0
09/05:00am 5.3 1.0 3.0 85 1.0 NW 15 20 8 11 1006.3 1006.3 4.0
09/04:30am 5.1 1.1 2.8 85 1.0 NW 13 19 7 10 1006.2 1006.2 4.0
09/04:00am 5.4 1.4 3.1 85 1.0 NW 13 17 7 9 1006.2 1006.2 4.0
09/03:30am 5.1 1.1 2.8 85 1.0 NW 13 17 7 9 1006.3 1006.3 4.0
09/03:00am 5.5 1.2 3.2 85 1.0 NW 15 22 8 12 1006.6 1006.6 4.0
09/02:30am 5.4 1.5 3.3 86 0.9 NW 13 22 7 12 1006.8 1006.8 4.0
09/02:00am 5.8 0.8 3.5 85 1.0 NW 19 28 10 15 1007.2 1007.3 4.0
09/01:30am 5.9 0.9 3.7 86 0.9 NW 19 24 10 13 1007.3 1007.4 4.0
09/01:00am 6.0 1.0 3.7 85 1.0 NW 19 24 10 13 1007.3 1007.4 4.0
09/12:30am 6.2 1.3 3.9 85 1.0 NW 19 26 10 14 1007.8 1007.9 4.0
09/12:00am 6.5 2.0 4.2 85 1.0 NW 17 22 9 12 1008.0 1008.1 4.0
 
Date/Time
WST
Temp
°C
App
Temp
°C
Dew
Point
°C
Rel
Hum
%
Delta-T
°C
Wind Press
QNH
hPa
Press
MSL
hPa
Rain since
9am
mm
Dir  Spd
km/h
Gust
km/h
Spd
kts
Gust
kts
08/11:30pm 6.6 2.5 4.1 84 1.1 NNW 15 20 8 11 1008.3 1008.4 4.0
08/11:00pm 6.4 2.3 4.1 85 1.0 NNW 15 20 8 11 1008.7 1008.8 4.0
08/10:30pm 6.6 2.5 4.3 85 1.0 NNW 15 19 8 10 1008.7 1008.8 4.0
08/10:00pm 6.8 2.7 4.3 84 1.1 NNW 15 19 8 10 1008.9 1009.0 4.0
08/09:30pm 6.5 3.4 3.7 82 1.2 NNW 9 13 5 7 1009.3 1009.3 4.0
08/09:00pm 7.1 3.7 3.9 80 1.4 NNW 11 15 6 8 1009.4 1009.4 4.0
08/08:30pm 6.8 3.4 3.8 81 1.3 NW 11 15 6 8 1009.6 1009.6 4.0
08/08:00pm 7.3 3.5 3.7 78 1.6 NW 13 17 7 9 1009.5 1009.5 4.0
08/07:30pm 8.3 4.1 3.9 74 1.9 WNW 15 20 8 11 1009.4 1009.4 4.0
08/07:00pm 9.1 4.0 3.9 70 2.3 WNW 20 30 11 16 1008.9 1009.0 4.0
08/06:30pm 9.6 4.2 4.4 70 2.3 WNW 22 33 12 18 1008.8 1008.9 4.0
08/06:00pm 9.8 6.2 5.2 73 2.1 WNW 13 20 7 11 1008.5 1008.6 4.0
08/05:30pm 10.7 6.6 6.1 73 2.2 NW 17 24 9 13 1008.3 1008.4 4.0
08/05:00pm 11.1 6.9 7.6 79 1.7 NW 19 30 10 16 1008.2 1008.3 4.0
08/04:30pm 11.1 7.5 8.3 83 1.4 NW 17 24 9 13 1007.8 1007.9 4.0
08/04:00pm 10.8 7.1 7.9 82 1.4 NNW 17 24 9 13 1007.8 1007.9 4.0
08/03:30pm 10.6 6.5 8.0 84 1.3 NW 19 28 10 15 1008.2 1008.3 4.0
08/03:00pm 11.1 7.8 8.0 81 1.5 WNW 15 22 8 12 1008.5 1008.6 3.4
08/02:30pm 11.3 7.6 8.0 80 1.6 NW 17 24 9 13 1008.2 1008.3 3.2
08/02:00pm 11.3 7.6 7.8 79 1.7 NW 17 24 9 13 1008.2 1008.3 3.2
08/01:30pm 10.6 7.6 7.7 82 1.4 WNW 13 20 7 11 1008.5 1008.6 3.2
08/01:00pm 10.1 5.3 7.3 83 1.4 W 22 33 12 18 1009.6 1009.6 2.8
08/12:30pm 10.9 4.0 7.4 79 1.7 WNW 33 50 18 27 1009.6 1009.6 0.6
08/12:26pm 11.5 4.8 7.2 75 2.1 WNW 32 50 17 27 1009.5 1009.5 0.4
08/12:16pm 13.6 7.1 8.0 69 2.8 NW 32 50 17 27 1009.2 1009.2 0.0
08/12:00pm 15.2 7.3 7.7 61 3.8 NW 39 52 21 28 1009.2 1009.2 0.0
08/11:30am 14.5 7.3 7.8 64 3.4 NNW 35 46 19 25 1009.7 1009.7 0.0
08/11:05am 14.1 8.2 7.4 64 3.3 NNW 28 46 15 25 1010.2 1010.3 0.0
08/11:00am 13.9 7.7 7.9 67 3.0 NNW 30 43 16 23 1010.3 1010.4 0.0
08/10:30am 13.3 6.9 7.1 66 3.1 NNW 30 44 16 24 1010.7 1010.8 0.0
08/10:14am 12.7 5.8 6.5 66 3.0 NNW 32 52 17 28 1010.9 1011.0 0.0
08/10:00am 12.6 5.7 6.6 67 2.9 NNW 32 44 17 24 1011.0 1011.1 0.0
08/09:43am 12.5 5.9 6.1 65 3.1 NNW 30 50 16 27 1011.0 1011.1 0.0
08/09:30am 12.3 6.1 6.1 66 3.0 NNW 28 43 15 23 1011.2 1011.3 0.0
08/09:00am 11.9 7.2 6.0 67 2.8 NNW 20 32 11 17 1011.6 1011.7 0.0
08/08:30am 11.0 6.4 5.7 70 2.5 N 19 30 10 16 1011.8 1011.9 0.0
08/08:00am 10.1 6.2 5.3 72 2.2 N 15 24 8 13 1012.1 1012.2 0.0
08/07:30am 9.2 4.8 5.0 75 1.9 N 17 24 9 13 1012.4 1012.5 0.0
08/07:00am 9.4 5.0 5.0 74 2.0 N 17 26 9 14 1012.6 1012.7 0.0
08/06:30am 9.7 4.4 5.1 73 2.1 NNW 22 37 12 20 1012.9 1013.0 0.0
08/06:00am 9.8 5.7 4.6 70 2.4 NNW 15 22 8 12 1012.7 1012.8 0.0
08/05:30am 9.6 5.6 4.8 72 2.2 NNW 15 20 8 11 1012.8 1012.9 0.0
08/05:00am 9.4 5.4 5.0 74 2.0 NNW 15 22 8 12 1013.1 1013.2 0.0
08/04:30am 9.3 5.3 5.1 75 1.9 NNW 15 22 8 12 1013.1 1013.2 0.0
08/04:00am 9.1 5.6 5.5 78 1.7 NNW 13 20 7 11 1013.5 1013.6 0.0
08/03:30am 8.8 5.4 5.9 82 1.3 NNW 13 17 7 9 1013.7 1013.8 0.0
08/03:00am 8.2 5.0 5.3 82 1.3 NNW 11 13 6 7 1013.9 1014.0 0.0
08/02:30am 8.1 4.5 5.2 82 1.3 NNW 13 17 7 9 1014.3 1014.4 0.0
08/02:00am 7.8 4.1 4.7 81 1.4 NNW 13 17 7 9 1014.7 1014.8 0.0
08/01:30am 8.0 4.0 4.8 80 1.4 NNW 15 20 8 11 1015.0 1015.2 0.0
08/01:00am 7.7 4.8 4.5 80 1.4 NNW 9 11 5 6 1015.2 1015.4 0.0
08/12:30am 6.8 4.4 4.1 83 1.2 NNW 6 9 3 5 1015.4 1015.6 0.0
08/12:00am 5.9 3.3 3.1 82 1.2 NW 6 7 3 4 1015.9 1016.0 0.0
 
Date/Time
WST
Temp
°C
App
Temp
°C
Dew
Point
°C
Rel
Hum
%
Delta-T
°C
Wind Press
QNH
hPa
Press
MSL
hPa
Rain since
9am
mm
Dir  Spd
km/h
Gust
km/h
Spd
kts
Gust
kts
07/11:30pm 6.7 4.1 3.3 79 1.5 NNW 6 7 3 4 1016.1 1016.2 0.0
07/11:00pm 7.9 5.2 3.8 75 1.8 NW 7 9 4 5 1016.3 1016.4 0.0
07/10:30pm 8.0 4.9 3.8 75 1.8 WNW 9 15 5 8 1016.7 1016.8 0.0
07/10:00pm 8.4 5.4 4.0 74 1.9 WNW 9 13 5 7 1016.8 1016.9 0.0
07/09:30pm 8.5 5.5 3.9 73 2.0 NW 9 13 5 7 1016.8 1016.9 0.0
07/09:00pm 8.8 5.4 4.2 73 2.1 WNW 11 13 6 7 1016.6 1016.7 0.0
07/08:30pm 9.3 6.4 4.5 72 2.2 WNW 9 11 5 6 1016.6 1016.7 0.0
07/08:00pm 9.1 6.6 4.5 73 2.1 NW 7 9 4 5 1016.7 1016.8 0.0
07/07:30pm 8.9 6.6 4.9 76 1.8 NW 6 9 3 5 1016.7 1016.8 0.0
07/07:00pm 9.5 7.5 4.3 70 2.3 NW 4 7 2 4 1016.5 1016.6 0.0
07/06:30pm 9.6 7.1 4.0 68 2.5 NW 6 9 3 5 1016.2 1016.3 0.0
07/06:00pm 9.9 7.6 4.9 71 2.3 NW 6 7 3 4 1015.8 1015.9 0.0
07/05:30pm 11.1 8.8 4.8 65 2.9 WNW 6 7 3 4 1015.5 1015.7 0.0
07/05:00pm 12.7 9.5 4.9 59 3.7 W 11 17 6 9 1015.4 1015.6 0.0

Other formats

Comma delimited format used in spreadsheet applications
http://www.bom.gov.au/fwo/IDW60801/IDW60801.94641.axf

JavaScript Object Notation format (JSON) in row-major order
http://www.bom.gov.au/fwo/IDW60801/IDW60801.94641.json

Data quality

Most of these data are generated automatically and are frequently updated. Quality checks on data are not normally performed. It is possible for incorrect values to appear. Refer to information at About Latest Weather Observations and please check the disclaimer before using these data.